sensor_id;sensor_type;location;lat;lon;timestamp;pressure;altitude;pressure_sealevel;temperature;humidity
51313;BME280;37397;53.226;10.400;2022-08-11T00:01:58;102096.38;;;22.24;46.91
51313;BME280;37397;53.226;10.400;2022-08-11T00:04:26;102090.81;;;22.20;47.00
51313;BME280;37397;53.226;10.400;2022-08-11T00:06:53;102084.25;;;22.14;46.85
51313;BME280;37397;53.226;10.400;2022-08-11T00:09:22;102087.69;;;22.12;46.97
51313;BME280;37397;53.226;10.400;2022-08-11T00:12:12;102086.91;;;22.06;46.85
51313;BME280;37397;53.226;10.400;2022-08-11T00:14:39;102092.72;;;22.06;46.97
51313;BME280;37397;53.226;10.400;2022-08-11T00:17:13;102092.19;;;22.02;47.14
51313;BME280;37397;53.226;10.400;2022-08-11T00:19:44;102081.63;;;21.99;47.04
51313;BME280;37397;53.226;10.400;2022-08-11T00:22:32;102085.59;;;21.96;47.20
51313;BME280;37397;53.226;10.400;2022-08-11T00:25:07;102083.50;;;21.91;47.17
51313;BME280;37397;53.226;10.400;2022-08-11T00:27:37;102081.66;;;21.88;47.34
51313;BME280;37397;53.226;10.400;2022-08-11T00:30:06;102079.56;;;21.82;47.21
51313;BME280;37397;53.226;10.400;2022-08-11T00:32:35;102083.53;;;21.79;47.34
51313;BME280;37397;53.226;10.400;2022-08-11T00:35:04;102084.88;;;21.78;47.44
51313;BME280;37397;53.226;10.400;2022-08-11T00:37:54;102086.47;;;21.74;47.44
51313;BME280;37397;53.226;10.400;2022-08-11T00:40:27;102076.44;;;21.69;47.28
51313;BME280;37397;53.226;10.400;2022-08-11T00:43:21;102074.56;;;21.60;47.15
51313;BME280;37397;53.226;10.400;2022-08-11T00:49:11;102071.69;;;21.55;47.52
51313;BME280;37397;53.226;10.400;2022-08-11T00:55:16;102075.06;;;21.47;47.61
51313;BME280;37397;53.226;10.400;2022-08-11T00:58:42;102071.13;;;21.39;47.50
51313;BME280;37397;53.226;10.400;2022-08-11T01:03:57;102074.03;;;21.34;47.99
51313;BME280;37397;53.226;10.400;2022-08-11T01:06:45;102093.31;;;21.31;48.01
51313;BME280;37397;53.226;10.400;2022-08-11T01:09:48;102091.44;;;21.28;47.89
51313;BME280;37397;53.226;10.400;2022-08-11T01:15:19;102092.00;;;21.21;48.13
51313;BME280;37397;53.226;10.400;2022-08-11T01:26:57;102093.56;;;21.05;48.32
51313;BME280;37397;53.226;10.400;2022-08-11T01:38:25;102080.59;;;20.89;48.50
51313;BME280;37397;53.226;10.400;2022-08-11T01:47:33;102083.75;;;20.80;48.70
51313;BME280;37397;53.226;10.400;2022-08-11T01:51:00;102091.63;;;20.73;48.70
51313;BME280;37397;53.226;10.400;2022-08-11T01:56:10;102097.69;;;20.70;49.26
51313;BME280;37397;53.226;10.400;2022-08-11T02:04:37;102083.91;;;20.59;49.22
51313;BME280;37397;53.226;10.400;2022-08-11T02:07:20;102080.47;;;20.55;48.94
51313;BME280;37397;53.226;10.400;2022-08-11T02:13:14;102080.97;;;20.48;49.39
51313;BME280;37397;53.226;10.400;2022-08-11T02:16:03;102081.22;;;20.44;49.27
51313;BME280;37397;53.226;10.400;2022-08-11T02:18:37;102068.84;;;20.44;49.69
51313;BME280;37397;53.226;10.400;2022-08-11T02:21:30;102074.09;;;20.39;49.60
51313;BME280;37397;53.226;10.400;2022-08-11T02:24:41;102069.59;;;20.33;49.69
51313;BME280;37397;53.226;10.400;2022-08-11T02:27:35;102078.03;;;20.31;49.53
51313;BME280;37397;53.226;10.400;2022-08-11T02:30:07;102077.47;;;20.27;49.90
51313;BME280;37397;53.226;10.400;2022-08-11T02:32:47;102078.78;;;20.26;49.72
51313;BME280;37397;53.226;10.400;2022-08-11T02:35:45;102079.31;;;20.24;50.05
51313;BME280;37397;53.226;10.400;2022-08-11T02:41:12;102081.13;;;20.16;50.00
51313;BME280;37397;53.226;10.400;2022-08-11T02:44:09;102073.47;;;20.13;49.98
51313;BME280;37397;53.226;10.400;2022-08-11T02:47:07;102080.28;;;20.10;50.01
51313;BME280;37397;53.226;10.400;2022-08-11T02:49:47;102069.75;;;20.07;50.00
51313;BME280;37397;53.226;10.400;2022-08-11T02:52:45;102077.34;;;20.04;50.05
51313;BME280;37397;53.226;10.400;2022-08-11T02:55:46;102070.50;;;20.01;50.20
51313;BME280;37397;53.226;10.400;2022-08-11T02:58:31;102075.22;;;19.99;50.38
51313;BME280;37397;53.226;10.400;2022-08-11T03:01:17;102073.88;;;19.94;50.16
51313;BME280;37397;53.226;10.400;2022-08-11T03:03:52;102078.09;;;19.93;50.56
51313;BME280;37397;53.226;10.400;2022-08-11T03:06:31;102071.75;;;19.89;50.33
51313;BME280;37397;53.226;10.400;2022-08-11T03:11:51;102071.69;;;19.83;50.38
51313;BME280;37397;53.226;10.400;2022-08-11T03:14:55;102070.09;;;19.77;50.38
51313;BME280;37397;53.226;10.400;2022-08-11T03:18:11;102075.88;;;19.77;50.48
51313;BME280;37397;53.226;10.400;2022-08-11T03:20:45;102072.13;;;19.71;50.48
51313;BME280;37397;53.226;10.400;2022-08-11T03:26:23;102070.78;;;19.66;50.63
51313;BME280;37397;53.226;10.400;2022-08-11T03:29:07;102079.69;;;19.62;50.58
51313;BME280;37397;53.226;10.400;2022-08-11T03:31:48;102081.03;;;19.61;50.63
51313;BME280;37397;53.226;10.400;2022-08-11T03:34:24;102077.56;;;19.57;50.62
51313;BME280;37397;53.226;10.400;2022-08-11T03:43:23;102077.75;;;19.48;50.97
51313;BME280;37397;53.226;10.400;2022-08-11T03:46:03;102066.41;;;19.44;51.13
51313;BME280;37397;53.226;10.400;2022-08-11T03:48:46;102070.31;;;19.41;51.17
51313;BME280;37397;53.226;10.400;2022-08-11T03:51:22;102069.28;;;19.39;51.08
51313;BME280;37397;53.226;10.400;2022-08-11T04:02:45;102076.78;;;19.25;51.24
51313;BME280;37397;53.226;10.400;2022-08-11T04:05:37;102068.59;;;19.23;50.85
51313;BME280;37397;53.226;10.400;2022-08-11T04:14:19;102074.88;;;19.16;51.51
51313;BME280;37397;53.226;10.400;2022-08-11T04:20:37;102072.16;;;19.07;51.54
51313;BME280;37397;53.226;10.400;2022-08-11T04:23:27;102071.88;;;19.05;51.22
51313;BME280;37397;53.226;10.400;2022-08-11T04:29:56;102075.22;;;18.98;51.66
51313;BME280;37397;53.226;10.400;2022-08-11T04:35:49;102069.38;;;18.92;51.77
51313;BME280;37397;53.226;10.400;2022-08-11T04:38:44;102071.19;;;18.89;51.79
51313;BME280;37397;53.226;10.400;2022-08-11T04:50:57;102065.84;;;18.82;52.20
51313;BME280;37397;53.226;10.400;2022-08-11T04:53:55;102071.63;;;18.82;52.68
51313;BME280;37397;53.226;10.400;2022-08-11T04:56:45;102069.44;;;18.77;52.81
51313;BME280;37397;53.226;10.400;2022-08-11T05:03:20;102056.00;;;18.74;52.62
51313;BME280;37397;53.226;10.400;2022-08-11T05:12:04;102063.59;;;18.71;53.12
51313;BME280;37397;53.226;10.400;2022-08-11T05:14:37;102052.81;;;18.72;53.48
51313;BME280;37397;53.226;10.400;2022-08-11T05:20:54;102053.66;;;18.72;53.46
51313;BME280;37397;53.226;10.400;2022-08-11T05:23:48;102064.97;;;18.76;53.91
51313;BME280;37397;53.226;10.400;2022-08-11T05:26:43;102071.53;;;18.76;54.01
51313;BME280;37397;53.226;10.400;2022-08-11T05:29:42;102073.94;;;18.78;54.21
51313;BME280;37397;53.226;10.400;2022-08-11T05:32:34;102063.97;;;18.79;54.05
51313;BME280;37397;53.226;10.400;2022-08-11T05:35:37;102065.84;;;18.82;54.27
51313;BME280;37397;53.226;10.400;2022-08-11T05:38:29;102070.28;;;18.83;54.58
51313;BME280;37397;53.226;10.400;2022-08-11T05:41:19;102075.09;;;18.86;54.49
51313;BME280;37397;53.226;10.400;2022-08-11T05:44:05;102065.91;;;18.88;54.39
51313;BME280;37397;53.226;10.400;2022-08-11T05:46:50;102070.69;;;18.91;54.61
51313;BME280;37397;53.226;10.400;2022-08-11T05:49:37;102070.75;;;18.97;54.60
51313;BME280;37397;53.226;10.400;2022-08-11T05:52:28;102063.13;;;18.99;54.68
51313;BME280;37397;53.226;10.400;2022-08-11T05:55:22;102070.53;;;19.06;54.53
51313;BME280;37397;53.226;10.400;2022-08-11T05:58:36;102063.75;;;19.09;54.54
51313;BME280;37397;53.226;10.400;2022-08-11T06:01:11;102068.78;;;19.14;54.92
51313;BME280;37397;53.226;10.400;2022-08-11T06:03:42;102061.47;;;19.19;54.41
51313;BME280;37397;53.226;10.400;2022-08-11T06:06:28;102067.81;;;19.23;54.32
51313;BME280;37397;53.226;10.400;2022-08-11T06:08:57;102069.19;;;19.27;54.53
51313;BME280;37397;53.226;10.400;2022-08-11T06:11:25;102066.56;;;19.29;54.38
51313;BME280;37397;53.226;10.400;2022-08-11T06:14:10;102071.88;;;19.37;54.06
51313;BME280;37397;53.226;10.400;2022-08-11T06:16:40;102076.63;;;19.40;54.03
51313;BME280;37397;53.226;10.400;2022-08-11T06:19:08;102082.72;;;19.42;54.41
51313;BME280;37397;53.226;10.400;2022-08-11T06:21:36;102078.81;;;19.45;54.81
51313;BME280;37397;53.226;10.400;2022-08-11T06:24:09;102076.72;;;19.51;54.73
51313;BME280;37397;53.226;10.400;2022-08-11T06:26:37;102074.13;;;19.53;54.64
51313;BME280;37397;53.226;10.400;2022-08-11T06:29:24;102071.50;;;19.55;54.43
51313;BME280;37397;53.226;10.400;2022-08-11T06:32:12;102068.09;;;19.57;54.81
51313;BME280;37397;53.226;10.400;2022-08-11T06:34:54;102074.41;;;19.61;54.31
51313;BME280;37397;53.226;10.400;2022-08-11T06:40:53;102063.16;;;19.68;54.31
51313;BME280;37397;53.226;10.400;2022-08-11T06:46:33;102076.88;;;19.74;54.66
51313;BME280;37397;53.226;10.400;2022-08-11T06:49:06;102077.19;;;19.76;54.63
51313;BME280;37397;53.226;10.400;2022-08-11T06:51:59;102078.03;;;19.82;54.62
51313;BME280;37397;53.226;10.400;2022-08-11T06:54:33;102078.56;;;19.86;54.55
51313;BME280;37397;53.226;10.400;2022-08-11T06:57:01;102069.88;;;19.86;54.43
51313;BME280;37397;53.226;10.400;2022-08-11T06:59:57;102072.31;;;19.93;54.47
51313;BME280;37397;53.226;10.400;2022-08-11T07:03:06;102076.78;;;19.94;54.53
51313;BME280;37397;53.226;10.400;2022-08-11T07:06:31;102075.22;;;19.99;54.43
51313;BME280;37397;53.226;10.400;2022-08-11T07:09:05;102073.41;;;20.01;54.76
51313;BME280;37397;53.226;10.400;2022-08-11T07:14:53;102077.66;;;20.12;54.91
51313;BME280;37397;53.226;10.400;2022-08-11T07:17:44;102070.84;;;20.15;54.73
51313;BME280;37397;53.226;10.400;2022-08-11T07:20:35;102074.56;;;20.21;54.67
51313;BME280;37397;53.226;10.400;2022-08-11T07:23:31;102081.69;;;20.26;54.71
51313;BME280;37397;53.226;10.400;2022-08-11T07:26:20;102061.16;;;20.29;54.83
51313;BME280;37397;53.226;10.400;2022-08-11T07:29:06;102070.09;;;20.31;55.25
51313;BME280;37397;53.226;10.400;2022-08-11T07:31:45;102056.94;;;20.36;54.81
51313;BME280;37397;53.226;10.400;2022-08-11T07:34:20;102064.34;;;20.43;54.77
51313;BME280;37397;53.226;10.400;2022-08-11T07:37:15;102064.63;;;20.45;54.66
51313;BME280;37397;53.226;10.400;2022-08-11T07:39:44;102066.75;;;20.50;54.62
51313;BME280;37397;53.226;10.400;2022-08-11T07:42:21;102065.19;;;20.54;54.20
51313;BME280;37397;53.226;10.400;2022-08-11T07:44:49;102069.41;;;20.59;54.41
51313;BME280;37397;53.226;10.400;2022-08-11T07:47:36;102064.16;;;20.63;54.20
51313;BME280;37397;53.226;10.400;2022-08-11T07:50:23;102063.41;;;20.68;54.04
51313;BME280;37397;53.226;10.400;2022-08-11T07:53:09;102075.56;;;20.72;54.10
51313;BME280;37397;53.226;10.400;2022-08-11T07:55:38;102067.38;;;20.76;53.99
51313;BME280;37397;53.226;10.400;2022-08-11T07:58:19;102066.59;;;20.82;54.08
51313;BME280;37397;53.226;10.400;2022-08-11T08:01:25;102059.47;;;20.83;53.64
51313;BME280;37397;53.226;10.400;2022-08-11T08:04:13;102071.63;;;20.87;53.87
51313;BME280;37397;53.226;10.400;2022-08-11T08:07:00;102078.78;;;20.91;53.78
51313;BME280;37397;53.226;10.400;2022-08-11T08:09:47;102073.22;;;20.99;53.85
51313;BME280;37397;53.226;10.400;2022-08-11T08:12:34;102071.91;;;21.00;54.13
51313;BME280;37397;53.226;10.400;2022-08-11T08:15:21;102069.53;;;21.10;53.97
51313;BME280;37397;53.226;10.400;2022-08-11T08:18:07;102069.28;;;21.13;53.78
51313;BME280;37397;53.226;10.400;2022-08-11T08:20:54;102071.94;;;21.17;53.98
51313;BME280;37397;53.226;10.400;2022-08-11T08:23:25;102071.94;;;21.23;53.66
51313;BME280;37397;53.226;10.400;2022-08-11T08:26:02;102072.72;;;21.29;53.56
51313;BME280;37397;53.226;10.400;2022-08-11T08:28:31;102073.25;;;21.33;53.69
51313;BME280;37397;53.226;10.400;2022-08-11T08:30:59;102072.19;;;21.36;53.78
51313;BME280;37397;53.226;10.400;2022-08-11T08:33:28;102079.84;;;21.45;53.35
51313;BME280;37397;53.226;10.400;2022-08-11T08:35:57;102076.19;;;21.50;53.37
51313;BME280;37397;53.226;10.400;2022-08-11T08:38:39;102066.66;;;21.55;53.08
51313;BME280;37397;53.226;10.400;2022-08-11T08:41:08;102073.78;;;21.60;53.04
51313;BME280;37397;53.226;10.400;2022-08-11T08:43:39;102063.22;;;21.62;52.97
51313;BME280;37397;53.226;10.400;2022-08-11T08:46:18;102077.22;;;21.70;52.81
51313;BME280;37397;53.226;10.400;2022-08-11T08:48:46;102080.13;;;21.75;52.56
51313;BME280;37397;53.226;10.400;2022-08-11T08:51:15;102070.59;;;21.80;52.66
51313;BME280;37397;53.226;10.400;2022-08-11T08:54:26;102063.19;;;21.85;52.66
51313;BME280;37397;53.226;10.400;2022-08-11T08:56:55;102062.66;;;21.87;52.50
51313;BME280;37397;53.226;10.400;2022-08-11T08:59:25;102058.41;;;21.88;52.02
51313;BME280;37397;53.226;10.400;2022-08-11T09:02:12;102059.97;;;22.00;51.81
51313;BME280;37397;53.226;10.400;2022-08-11T09:04:40;102054.41;;;22.08;51.41
51313;BME280;37397;53.226;10.400;2022-08-11T09:07:11;102046.47;;;22.08;51.50
51313;BME280;37397;53.226;10.400;2022-08-11T09:09:50;102045.63;;;22.13;51.33
51313;BME280;37397;53.226;10.400;2022-08-11T09:12:18;102043.22;;;22.23;51.50
51313;BME280;37397;53.226;10.400;2022-08-11T09:15:05;102050.34;;;22.28;51.20
51313;BME280;37397;53.226;10.400;2022-08-11T09:17:38;102042.69;;;22.30;50.93
51313;BME280;37397;53.226;10.400;2022-08-11T09:20:19;102046.63;;;22.33;50.75
51313;BME280;37397;53.226;10.400;2022-08-11T09:22:48;102037.91;;;22.38;50.82
51313;BME280;37397;53.226;10.400;2022-08-11T09:25:56;102052.41;;;22.44;50.66
51313;BME280;37397;53.226;10.400;2022-08-11T09:28:44;102046.59;;;22.44;50.56
51313;BME280;37397;53.226;10.400;2022-08-11T09:31:12;102044.19;;;22.48;50.06
51313;BME280;37397;53.226;10.400;2022-08-11T09:33:40;102034.88;;;22.55;49.96
51313;BME280;37397;53.226;10.400;2022-08-11T09:36:08;102032.72;;;22.62;49.90
51313;BME280;37397;53.226;10.400;2022-08-11T09:38:56;102040.38;;;22.65;50.10
51313;BME280;37397;53.226;10.400;2022-08-11T09:41:42;102027.69;;;22.68;49.71
51313;BME280;37397;53.226;10.400;2022-08-11T09:44:28;102018.94;;;22.68;49.42
51313;BME280;37397;53.226;10.400;2022-08-11T09:47:26;102024.75;;;22.73;49.25
51313;BME280;37397;53.226;10.400;2022-08-11T09:49:56;102018.38;;;22.75;48.47
51313;BME280;37397;53.226;10.400;2022-08-11T09:52:26;102013.03;;;22.79;48.65
51313;BME280;37397;53.226;10.400;2022-08-11T09:54:54;102017.22;;;22.89;48.51
51313;BME280;37397;53.226;10.400;2022-08-11T09:57:21;102017.94;;;22.95;48.38
51313;BME280;37397;53.226;10.400;2022-08-11T10:00:09;102012.63;;;23.00;48.48
51313;BME280;37397;53.226;10.400;2022-08-11T10:02:47;102009.97;;;23.02;48.46
51313;BME280;37397;53.226;10.400;2022-08-11T10:05:17;102011.50;;;23.08;48.39
51313;BME280;37397;53.226;10.400;2022-08-11T10:08:04;102012.50;;;23.17;48.05
51313;BME280;37397;53.226;10.400;2022-08-11T10:10:37;101993.16;;;23.19;47.98
51313;BME280;37397;53.226;10.400;2022-08-11T10:13:08;101997.91;;;23.22;47.85
51313;BME280;37397;53.226;10.400;2022-08-11T10:15:57;101992.28;;;23.30;47.88
51313;BME280;37397;53.226;10.400;2022-08-11T10:18:43;101980.56;;;23.36;47.68
51313;BME280;37397;53.226;10.400;2022-08-11T10:21:25;101983.47;;;23.36;47.59
51313;BME280;37397;53.226;10.400;2022-08-11T10:23:56;101996.41;;;23.40;47.61
51313;BME280;37397;53.226;10.400;2022-08-11T10:26:43;101977.06;;;23.43;47.32
51313;BME280;37397;53.226;10.400;2022-08-11T10:29:21;101977.78;;;23.49;47.22
51313;BME280;37397;53.226;10.400;2022-08-11T10:32:18;101974.78;;;23.55;47.06
51313;BME280;37397;53.226;10.400;2022-08-11T10:35:24;101973.75;;;23.52;46.50
51313;BME280;37397;53.226;10.400;2022-08-11T10:37:52;101967.03;;;23.63;46.16
51313;BME280;37397;53.226;10.400;2022-08-11T10:40:32;101966.69;;;23.66;46.18
51313;BME280;37397;53.226;10.400;2022-08-11T10:43:01;101959.53;;;23.67;46.46
51313;BME280;37397;53.226;10.400;2022-08-11T10:45:30;101964.53;;;23.73;46.49
51313;BME280;37397;53.226;10.400;2022-08-11T10:48:16;101949.06;;;23.78;46.36
51313;BME280;37397;53.226;10.400;2022-08-11T10:50:48;101952.25;;;23.80;45.98
51313;BME280;37397;53.226;10.400;2022-08-11T10:53:34;101953.56;;;23.84;45.86
51313;BME280;37397;53.226;10.400;2022-08-11T10:56:20;101958.22;;;23.93;45.51
51313;BME280;37397;53.226;10.400;2022-08-11T10:59:07;101951.81;;;23.95;45.27
51313;BME280;37397;53.226;10.400;2022-08-11T11:01:40;101957.34;;;23.98;45.16
51313;BME280;37397;53.226;10.400;2022-08-11T11:04:19;101962.06;;;24.01;45.22
51313;BME280;37397;53.226;10.400;2022-08-11T11:06:58;101950.91;;;24.06;44.61
51313;BME280;37397;53.226;10.400;2022-08-11T11:09:31;101940.78;;;24.07;44.63
51313;BME280;37397;53.226;10.400;2022-08-11T11:12:18;101940.25;;;24.08;44.54
51313;BME280;37397;53.226;10.400;2022-08-11T11:15:05;101950.25;;;24.13;44.70
51313;BME280;37397;53.226;10.400;2022-08-11T11:17:54;101949.69;;;24.14;44.51
51313;BME280;37397;53.226;10.400;2022-08-11T11:20:24;101947.28;;;24.18;44.66
51313;BME280;37397;53.226;10.400;2022-08-11T11:23:07;101946.94;;;24.22;44.33
51313;BME280;37397;53.226;10.400;2022-08-11T11:25:48;101938.41;;;24.24;44.25
51313;BME280;37397;53.226;10.400;2022-08-11T11:31:47;101936.00;;;24.28;44.16
51313;BME280;37397;53.226;10.400;2022-08-11T11:37:19;101938.25;;;24.35;44.44
51313;BME280;37397;53.226;10.400;2022-08-11T11:39:46;101926.59;;;24.35;44.01
51313;BME280;37397;53.226;10.400;2022-08-11T11:42:13;101927.06;;;24.39;43.69
51313;BME280;37397;53.226;10.400;2022-08-11T11:44:43;101929.88;;;24.45;43.38
51313;BME280;37397;53.226;10.400;2022-08-11T11:47:11;101935.88;;;24.53;43.64
51313;BME280;37397;53.226;10.400;2022-08-11T11:49:40;101925.78;;;24.54;43.25
51313;BME280;37397;53.226;10.400;2022-08-11T11:52:19;101919.47;;;24.50;43.21
51313;BME280;37397;53.226;10.400;2022-08-11T11:54:47;101921.50;;;24.55;42.54
51313;BME280;37397;53.226;10.400;2022-08-11T11:57:16;101922.47;;;24.63;42.58
51313;BME280;37397;53.226;10.400;2022-08-11T12:00:07;101918.75;;;24.63;42.60
51313;BME280;37397;53.226;10.400;2022-08-11T12:03:01;101922.16;;;24.67;42.55
51313;BME280;37397;53.226;10.400;2022-08-11T12:05:30;101918.91;;;24.70;42.43
51313;BME280;37397;53.226;10.400;2022-08-11T12:08:00;101931.03;;;24.74;42.44
51313;BME280;37397;53.226;10.400;2022-08-11T12:11:08;101922.28;;;24.74;41.89
51313;BME280;37397;53.226;10.400;2022-08-11T12:13:56;101922.41;;;24.82;42.47
51313;BME280;37397;53.226;10.400;2022-08-11T12:16:23;101922.06;;;24.86;42.20
51313;BME280;37397;53.226;10.400;2022-08-11T12:19:04;101914.00;;;24.92;42.43
51313;BME280;37397;53.226;10.400;2022-08-11T12:21:33;101911.34;;;24.94;42.13
51313;BME280;37397;53.226;10.400;2022-08-11T12:24:01;101905.72;;;24.96;42.26
51313;BME280;37397;53.226;10.400;2022-08-11T12:26:46;101894.25;;;24.98;42.39
51313;BME280;37397;53.226;10.400;2022-08-11T12:29:34;101889.31;;;25.06;41.68
51313;BME280;37397;53.226;10.400;2022-08-11T12:32:01;101891.34;;;25.11;42.11
51313;BME280;37397;53.226;10.400;2022-08-11T12:34:32;101892.16;;;25.12;42.03
51313;BME280;37397;53.226;10.400;2022-08-11T12:37:00;101885.06;;;25.21;41.45
51313;BME280;37397;53.226;10.400;2022-08-11T12:39:35;101890.91;;;25.21;41.49
51313;BME280;37397;53.226;10.400;2022-08-11T12:42:41;101886.44;;;25.20;41.70
51313;BME280;37397;53.226;10.400;2022-08-11T12:45:35;101875.19;;;25.24;41.45
51313;BME280;37397;53.226;10.400;2022-08-11T12:48:07;101887.34;;;25.28;41.71
51313;BME280;37397;53.226;10.400;2022-08-11T12:51:19;101875.31;;;25.32;42.09
51313;BME280;37397;53.226;10.400;2022-08-11T12:56:59;101870.72;;;25.36;41.30
51313;BME280;37397;53.226;10.400;2022-08-11T13:00:06;101867.13;;;25.30;40.24
51313;BME280;37397;53.226;10.400;2022-08-11T13:02:53;101866.44;;;25.37;40.25
51313;BME280;37397;53.226;10.400;2022-08-11T13:05:41;101845.97;;;25.37;40.25
51313;BME280;37397;53.226;10.400;2022-08-11T13:08:12;101850.94;;;25.42;40.03
51313;BME280;37397;53.226;10.400;2022-08-11T13:10:41;101849.47;;;25.49;40.48
51313;BME280;37397;53.226;10.400;2022-08-11T13:13:27;101854.41;;;25.54;40.08
51313;BME280;37397;53.226;10.400;2022-08-11T13:16:15;101860.59;;;25.51;40.59
51313;BME280;37397;53.226;10.400;2022-08-11T13:18:43;101845.41;;;25.52;40.68
51313;BME280;37397;53.226;10.400;2022-08-11T13:21:10;101851.81;;;25.51;40.94
51313;BME280;37397;53.226;10.400;2022-08-11T13:23:47;101850.69;;;25.54;40.00
51313;BME280;37397;53.226;10.400;2022-08-11T13:26:35;101840.25;;;25.58;40.39
51313;BME280;37397;53.226;10.400;2022-08-11T13:29:24;101844.50;;;25.57;40.25
51313;BME280;37397;53.226;10.400;2022-08-11T13:31:53;101841.59;;;25.57;40.01
51313;BME280;37397;53.226;10.400;2022-08-11T13:34:23;101835.16;;;25.59;39.67
51313;BME280;37397;53.226;10.400;2022-08-11T13:36:52;101830.31;;;25.61;39.33
51313;BME280;37397;53.226;10.400;2022-08-11T13:39:21;101822.34;;;25.62;39.57
51313;BME280;37397;53.226;10.400;2022-08-11T13:41:51;101832.47;;;25.61;38.83
51313;BME280;37397;53.226;10.400;2022-08-11T13:44:19;101833.47;;;25.63;38.94
51313;BME280;37397;53.226;10.400;2022-08-11T13:46:53;101837.63;;;25.68;39.00
51313;BME280;37397;53.226;10.400;2022-08-11T13:49:22;101834.91;;;25.70;38.81
51313;BME280;37397;53.226;10.400;2022-08-11T13:51:49;101840.41;;;25.74;39.20
51313;BME280;37397;53.226;10.400;2022-08-11T13:54:20;101831.84;;;25.76;39.24
51313;BME280;37397;53.226;10.400;2022-08-11T13:56:50;101826.56;;;25.74;39.67
51313;BME280;37397;53.226;10.400;2022-08-11T13:59:19;101820.97;;;25.76;39.70
51313;BME280;37397;53.226;10.400;2022-08-11T14:02:04;101828.38;;;25.77;39.92
51313;BME280;37397;53.226;10.400;2022-08-11T14:04:53;101813.41;;;25.81;39.91
51313;BME280;37397;53.226;10.400;2022-08-11T14:07:23;101807.91;;;25.77;38.72
51313;BME280;37397;53.226;10.400;2022-08-11T14:09:58;101804.19;;;25.77;38.98
51313;BME280;37397;53.226;10.400;2022-08-11T14:12:26;101807.25;;;25.71;39.25
51313;BME280;37397;53.226;10.400;2022-08-11T14:15:23;101802.28;;;25.79;38.63
51313;BME280;37397;53.226;10.400;2022-08-11T14:17:56;101803.28;;;25.82;39.09
51313;BME280;37397;53.226;10.400;2022-08-11T14:20:28;101790.81;;;25.81;39.16
51313;BME280;37397;53.226;10.400;2022-08-11T14:23:16;101793.38;;;25.85;39.18
51313;BME280;37397;53.226;10.400;2022-08-11T14:25:44;101801.78;;;25.89;38.87
51313;BME280;37397;53.226;10.400;2022-08-11T14:28:41;101797.31;;;25.88;38.81
51313;BME280;37397;53.226;10.400;2022-08-11T14:31:14;101790.31;;;25.91;38.83
51313;BME280;37397;53.226;10.400;2022-08-11T14:33:42;101795.03;;;25.94;39.19
51313;BME280;37397;53.226;10.400;2022-08-11T14:36:33;101783.56;;;25.96;39.10
51313;BME280;37397;53.226;10.400;2022-08-11T14:39:03;101789.28;;;26.01;38.98
51313;BME280;37397;53.226;10.400;2022-08-11T14:41:31;101776.22;;;26.02;39.54
51313;BME280;37397;53.226;10.400;2022-08-11T14:44:37;101787.38;;;26.04;38.51
51313;BME280;37397;53.226;10.400;2022-08-11T14:47:23;101784.84;;;26.08;38.91
51313;BME280;37397;53.226;10.400;2022-08-11T14:49:56;101786.63;;;26.11;38.74
51313;BME280;37397;53.226;10.400;2022-08-11T14:52:42;101779.38;;;26.05;37.79
51313;BME280;37397;53.226;10.400;2022-08-11T14:55:11;101786.22;;;26.07;37.49
51313;BME280;37397;53.226;10.400;2022-08-11T14:57:57;101782.81;;;26.16;37.03
51313;BME280;37397;53.226;10.400;2022-08-11T15:00:24;101774.59;;;26.15;38.15
51313;BME280;37397;53.226;10.400;2022-08-11T15:02:52;101780.09;;;26.18;38.11
51313;BME280;37397;53.226;10.400;2022-08-11T15:05:59;101778.50;;;26.17;37.81
51313;BME280;37397;53.226;10.400;2022-08-11T15:08:29;101777.38;;;26.20;37.77
51313;BME280;37397;53.226;10.400;2022-08-11T15:11:17;101771.09;;;26.16;37.33
51313;BME280;37397;53.226;10.400;2022-08-11T15:14:05;101777.75;;;26.17;37.57
51313;BME280;37397;53.226;10.400;2022-08-11T15:16:34;101757.25;;;26.17;37.33
51313;BME280;37397;53.226;10.400;2022-08-11T15:19:20;101761.03;;;26.25;37.15
51313;BME280;37397;53.226;10.400;2022-08-11T15:21:48;101763.59;;;26.29;37.42
51313;BME280;37397;53.226;10.400;2022-08-11T15:24:34;101760.66;;;26.29;37.72
51313;BME280;37397;53.226;10.400;2022-08-11T15:27:04;101762.25;;;26.30;38.30
51313;BME280;37397;53.226;10.400;2022-08-11T15:29:53;101750.19;;;26.33;38.26
51313;BME280;37397;53.226;10.400;2022-08-11T15:32:59;101753.75;;;26.39;38.48
51313;BME280;37397;53.226;10.400;2022-08-11T15:35:45;101735.41;;;26.39;38.35
51313;BME280;37397;53.226;10.400;2022-08-11T15:38:31;101736.63;;;26.44;38.58
51313;BME280;37397;53.226;10.400;2022-08-11T15:41:02;101734.66;;;26.46;38.60
51313;BME280;37397;53.226;10.400;2022-08-11T15:43:52;101735.09;;;26.50;38.23
51313;BME280;37397;53.226;10.400;2022-08-11T15:46:42;101731.22;;;26.55;38.25
51313;BME280;37397;53.226;10.400;2022-08-11T15:49:28;101737.09;;;26.55;38.43
51313;BME280;37397;53.226;10.400;2022-08-11T15:52:18;101736.34;;;26.63;38.82
51313;BME280;37397;53.226;10.400;2022-08-11T15:54:47;101734.25;;;26.71;38.33
51313;BME280;37397;53.226;10.400;2022-08-11T15:57:15;101732.72;;;26.70;38.03
51313;BME280;37397;53.226;10.400;2022-08-11T16:00:06;101730.19;;;26.74;37.76
51313;BME280;37397;53.226;10.400;2022-08-11T16:02:52;101739.19;;;26.76;38.18